sensor_id;sensor_type;location;lat;lon;timestamp;P1;durP1;ratioP1;P2;durP2;ratioP2
62332;SDS011;48624;49.812;8.562;2023-11-21T00:01:37;7.70;;;2.60;;
62332;SDS011;48624;49.812;8.562;2023-11-21T00:04:02;10.63;;;3.47;;
62332;SDS011;48624;49.812;8.562;2023-11-21T00:06:27;6.35;;;2.70;;
62332;SDS011;48624;49.812;8.562;2023-11-21T00:08:54;9.48;;;3.13;;
62332;SDS011;48624;49.812;8.562;2023-11-21T00:11:19;11.73;;;3.70;;
62332;SDS011;48624;49.812;8.562;2023-11-21T00:13:45;9.55;;;3.83;;
62332;SDS011;48624;49.812;8.562;2023-11-21T00:16:10;6.20;;;2.92;;
62332;SDS011;48624;49.812;8.562;2023-11-21T00:18:35;9.20;;;3.00;;
62332;SDS011;48624;49.812;8.562;2023-11-21T00:21:01;5.55;;;4.30;;
62332;SDS011;48624;49.812;8.562;2023-11-21T00:23:26;7.28;;;3.20;;
62332;SDS011;48624;49.812;8.562;2023-11-21T00:25:51;7.90;;;2.90;;
62332;SDS011;48624;49.812;8.562;2023-11-21T00:28:17;13.25;;;4.30;;
62332;SDS011;48624;49.812;8.562;2023-11-21T00:30:42;9.55;;;4.65;;
62332;SDS011;48624;49.812;8.562;2023-11-21T00:33:07;9.32;;;4.47;;
62332;SDS011;48624;49.812;8.562;2023-11-21T00:35:33;8.63;;;4.60;;
62332;SDS011;48624;49.812;8.562;2023-11-21T00:37:58;8.98;;;4.35;;
62332;SDS011;48624;49.812;8.562;2023-11-21T00:40:23;10.88;;;3.85;;
62332;SDS011;48624;49.812;8.562;2023-11-21T00:42:49;9.00;;;4.20;;
62332;SDS011;48624;49.812;8.562;2023-11-21T00:45:15;8.98;;;4.10;;
62332;SDS011;48624;49.812;8.562;2023-11-21T00:47:40;9.98;;;4.38;;
62332;SDS011;48624;49.812;8.562;2023-11-21T00:50:05;7.50;;;4.25;;
62332;SDS011;48624;49.812;8.562;2023-11-21T00:52:31;7.45;;;4.18;;
62332;SDS011;48624;49.812;8.562;2023-11-21T00:54:57;14.05;;;4.13;;
62332;SDS011;48624;49.812;8.562;2023-11-21T00:57:25;9.80;;;4.40;;
62332;SDS011;48624;49.812;8.562;2023-11-21T00:59:50;9.38;;;4.63;;
62332;SDS011;48624;49.812;8.562;2023-11-21T01:02:16;12.82;;;4.63;;
62332;SDS011;48624;49.812;8.562;2023-11-21T01:04:41;9.57;;;4.43;;
62332;SDS011;48624;49.812;8.562;2023-11-21T01:07:06;10.60;;;4.88;;
62332;SDS011;48624;49.812;8.562;2023-11-21T01:09:32;14.02;;;4.93;;
62332;SDS011;48624;49.812;8.562;2023-11-21T01:11:58;11.30;;;5.25;;
62332;SDS011;48624;49.812;8.562;2023-11-21T01:14:24;14.43;;;4.57;;
62332;SDS011;48624;49.812;8.562;2023-11-21T01:16:52;10.52;;;5.28;;
62332;SDS011;48624;49.812;8.562;2023-11-21T01:19:17;11.90;;;6.38;;
62332;SDS011;48624;49.812;8.562;2023-11-21T01:21:43;11.82;;;5.50;;
62332;SDS011;48624;49.812;8.562;2023-11-21T01:24:08;14.45;;;6.20;;
62332;SDS011;48624;49.812;8.562;2023-11-21T01:26:33;11.77;;;5.72;;
62332;SDS011;48624;49.812;8.562;2023-11-21T01:28:59;11.35;;;6.10;;
62332;SDS011;48624;49.812;8.562;2023-11-21T01:31:24;13.32;;;6.25;;
62332;SDS011;48624;49.812;8.562;2023-11-21T01:33:54;9.98;;;6.28;;
62332;SDS011;48624;49.812;8.562;2023-11-21T01:36:20;16.20;;;6.65;;
62332;SDS011;48624;49.812;8.562;2023-11-21T01:38:46;12.80;;;6.07;;
62332;SDS011;48624;49.812;8.562;2023-11-21T01:41:13;13.40;;;6.97;;
62332;SDS011;48624;49.812;8.562;2023-11-21T01:43:39;11.07;;;6.43;;
62332;SDS011;48624;49.812;8.562;2023-11-21T01:46:04;14.60;;;7.15;;
62332;SDS011;48624;49.812;8.562;2023-11-21T01:48:31;13.57;;;6.90;;
62332;SDS011;48624;49.812;8.562;2023-11-21T01:50:56;12.05;;;6.13;;
62332;SDS011;48624;49.812;8.562;2023-11-21T01:53:23;15.23;;;7.03;;
62332;SDS011;48624;49.812;8.562;2023-11-21T01:55:50;14.27;;;6.63;;
62332;SDS011;48624;49.812;8.562;2023-11-21T01:58:16;15.63;;;9.52;;
62332;SDS011;48624;49.812;8.562;2023-11-21T02:00:42;10.68;;;5.53;;
62332;SDS011;48624;49.812;8.562;2023-11-21T02:03:08;13.63;;;6.63;;
62332;SDS011;48624;49.812;8.562;2023-11-21T02:05:35;18.55;;;8.02;;
62332;SDS011;48624;49.812;8.562;2023-11-21T02:08:01;15.48;;;7.70;;
62332;SDS011;48624;49.812;8.562;2023-11-21T02:10:27;15.15;;;8.60;;
62332;SDS011;48624;49.812;8.562;2023-11-21T02:12:54;14.35;;;7.30;;
62332;SDS011;48624;49.812;8.562;2023-11-21T02:15:22;16.02;;;7.05;;
62332;SDS011;48624;49.812;8.562;2023-11-21T02:17:48;14.95;;;6.70;;
62332;SDS011;48624;49.812;8.562;2023-11-21T02:20:19;11.10;;;7.00;;
62332;SDS011;48624;49.812;8.562;2023-11-21T02:22:49;16.38;;;7.93;;
62332;SDS011;48624;49.812;8.562;2023-11-21T02:25:25;12.40;;;7.18;;
62332;SDS011;48624;49.812;8.562;2023-11-21T02:27:50;12.93;;;7.40;;
62332;SDS011;48624;49.812;8.562;2023-11-21T02:30:16;15.23;;;7.20;;
62332;SDS011;48624;49.812;8.562;2023-11-21T02:32:41;13.30;;;6.93;;
62332;SDS011;48624;49.812;8.562;2023-11-21T02:35:08;16.88;;;7.28;;
62332;SDS011;48624;49.812;8.562;2023-11-21T02:37:34;11.50;;;5.20;;
62332;SDS011;48624;49.812;8.562;2023-11-21T02:40:00;11.68;;;6.55;;
62332;SDS011;48624;49.812;8.562;2023-11-21T02:42:29;14.43;;;7.68;;
62332;SDS011;48624;49.812;8.562;2023-11-21T02:44:54;19.35;;;8.00;;
62332;SDS011;48624;49.812;8.562;2023-11-21T02:47:19;14.98;;;7.10;;
62332;SDS011;48624;49.812;8.562;2023-11-21T02:49:44;17.77;;;7.25;;
62332;SDS011;48624;49.812;8.562;2023-11-21T02:52:10;15.50;;;7.45;;
62332;SDS011;48624;49.812;8.562;2023-11-21T02:54:35;19.92;;;7.28;;
62332;SDS011;48624;49.812;8.562;2023-11-21T02:57:01;18.63;;;7.20;;
62332;SDS011;48624;49.812;8.562;2023-11-21T02:59:27;15.30;;;7.53;;
62332;SDS011;48624;49.812;8.562;2023-11-21T03:01:52;16.67;;;7.80;;
62332;SDS011;48624;49.812;8.562;2023-11-21T03:04:17;15.85;;;7.70;;
62332;SDS011;48624;49.812;8.562;2023-11-21T03:06:44;17.40;;;6.75;;
62332;SDS011;48624;49.812;8.562;2023-11-21T03:09:10;17.05;;;7.60;;
62332;SDS011;48624;49.812;8.562;2023-11-21T03:11:39;17.85;;;7.53;;
62332;SDS011;48624;49.812;8.562;2023-11-21T03:14:04;14.85;;;7.78;;
62332;SDS011;48624;49.812;8.562;2023-11-21T03:16:30;20.63;;;7.70;;
62332;SDS011;48624;49.812;8.562;2023-11-21T03:18:56;15.85;;;8.10;;
62332;SDS011;48624;49.812;8.562;2023-11-21T03:21:21;16.58;;;7.75;;
62332;SDS011;48624;49.812;8.562;2023-11-21T03:23:47;15.35;;;7.78;;
62332;SDS011;48624;49.812;8.562;2023-11-21T03:26:12;13.98;;;7.60;;
62332;SDS011;48624;49.812;8.562;2023-11-21T03:28:38;18.55;;;8.50;;
62332;SDS011;48624;49.812;8.562;2023-11-21T03:31:03;15.93;;;7.97;;
62332;SDS011;48624;49.812;8.562;2023-11-21T03:33:29;17.00;;;8.00;;
62332;SDS011;48624;49.812;8.562;2023-11-21T03:35:54;15.75;;;8.07;;
62332;SDS011;48624;49.812;8.562;2023-11-21T03:38:19;15.45;;;8.25;;
62332;SDS011;48624;49.812;8.562;2023-11-21T03:40:45;16.10;;;9.02;;
62332;SDS011;48624;49.812;8.562;2023-11-21T03:43:10;16.25;;;8.45;;
62332;SDS011;48624;49.812;8.562;2023-11-21T03:45:36;19.48;;;8.45;;
62332;SDS011;48624;49.812;8.562;2023-11-21T03:48:01;17.00;;;8.32;;
62332;SDS011;48624;49.812;8.562;2023-11-21T03:50:28;18.77;;;8.98;;
62332;SDS011;48624;49.812;8.562;2023-11-21T03:52:54;22.90;;;9.38;;
62332;SDS011;48624;49.812;8.562;2023-11-21T03:55:19;14.45;;;8.85;;
62332;SDS011;48624;49.812;8.562;2023-11-21T03:57:45;16.67;;;9.10;;
62332;SDS011;48624;49.812;8.562;2023-11-21T04:00:10;19.35;;;9.57;;
62332;SDS011;48624;49.812;8.562;2023-11-21T04:02:36;19.73;;;10.45;;
62332;SDS011;48624;49.812;8.562;2023-11-21T04:05:01;24.88;;;13.15;;
62332;SDS011;48624;49.812;8.562;2023-11-21T04:07:27;28.42;;;12.60;;
62332;SDS011;48624;49.812;8.562;2023-11-21T04:09:53;23.70;;;13.80;;
62332;SDS011;48624;49.812;8.562;2023-11-21T04:12:18;28.58;;;12.70;;
62332;SDS011;48624;49.812;8.562;2023-11-21T04:14:44;23.55;;;13.13;;
62332;SDS011;48624;49.812;8.562;2023-11-21T04:17:09;27.33;;;13.82;;
62332;SDS011;48624;49.812;8.562;2023-11-21T04:19:34;22.73;;;13.45;;
62332;SDS011;48624;49.812;8.562;2023-11-21T04:22:01;21.90;;;14.43;;
62332;SDS011;48624;49.812;8.562;2023-11-21T04:24:26;24.92;;;12.90;;
62332;SDS011;48624;49.812;8.562;2023-11-21T04:26:52;21.42;;;14.15;;
62332;SDS011;48624;49.812;8.562;2023-11-21T04:29:17;26.00;;;14.25;;
62332;SDS011;48624;49.812;8.562;2023-11-21T04:31:42;24.58;;;13.27;;
62332;SDS011;48624;49.812;8.562;2023-11-21T04:34:08;24.42;;;13.02;;
62332;SDS011;48624;49.812;8.562;2023-11-21T04:36:33;27.55;;;14.13;;
62332;SDS011;48624;49.812;8.562;2023-11-21T04:38:59;19.55;;;12.48;;
62332;SDS011;48624;49.812;8.562;2023-11-21T04:41:25;23.67;;;12.27;;
62332;SDS011;48624;49.812;8.562;2023-11-21T04:43:50;24.23;;;12.40;;
62332;SDS011;48624;49.812;8.562;2023-11-21T04:46:16;23.15;;;12.55;;
62332;SDS011;48624;49.812;8.562;2023-11-21T04:48:41;23.45;;;12.18;;
62332;SDS011;48624;49.812;8.562;2023-11-21T04:51:07;22.30;;;12.10;;
62332;SDS011;48624;49.812;8.562;2023-11-21T04:53:32;23.17;;;11.55;;
62332;SDS011;48624;49.812;8.562;2023-11-21T04:55:59;21.65;;;12.45;;
62332;SDS011;48624;49.812;8.562;2023-11-21T04:58:25;23.88;;;10.98;;
62332;SDS011;48624;49.812;8.562;2023-11-21T05:00:50;25.27;;;12.38;;
62332;SDS011;48624;49.812;8.562;2023-11-21T05:03:15;25.80;;;13.05;;
62332;SDS011;48624;49.812;8.562;2023-11-21T05:05:40;32.22;;;12.50;;
62332;SDS011;48624;49.812;8.562;2023-11-21T05:08:06;24.60;;;13.20;;
62332;SDS011;48624;49.812;8.562;2023-11-21T05:10:31;38.25;;;13.90;;
62332;SDS011;48624;49.812;8.562;2023-11-21T05:12:56;30.90;;;13.20;;
62332;SDS011;48624;49.812;8.562;2023-11-21T05:15:21;37.83;;;15.70;;
62332;SDS011;48624;49.812;8.562;2023-11-21T05:17:48;28.30;;;14.45;;
62332;SDS011;48624;49.812;8.562;2023-11-21T05:20:15;32.38;;;15.40;;
62332;SDS011;48624;49.812;8.562;2023-11-21T05:22:45;38.83;;;15.55;;
62332;SDS011;48624;49.812;8.562;2023-11-21T05:25:11;36.88;;;16.05;;
62332;SDS011;48624;49.812;8.562;2023-11-21T05:27:36;32.55;;;15.73;;
62332;SDS011;48624;49.812;8.562;2023-11-21T05:30:02;40.72;;;15.93;;
62332;SDS011;48624;49.812;8.562;2023-11-21T05:32:34;35.97;;;16.33;;
62332;SDS011;48624;49.812;8.562;2023-11-21T05:34:59;37.72;;;17.77;;
62332;SDS011;48624;49.812;8.562;2023-11-21T05:37:25;40.55;;;17.58;;
62332;SDS011;48624;49.812;8.562;2023-11-21T05:39:52;40.10;;;17.85;;
62332;SDS011;48624;49.812;8.562;2023-11-21T05:42:18;41.33;;;18.52;;
62332;SDS011;48624;49.812;8.562;2023-11-21T05:44:43;39.10;;;17.80;;
62332;SDS011;48624;49.812;8.562;2023-11-21T05:47:09;41.08;;;18.70;;
62332;SDS011;48624;49.812;8.562;2023-11-21T05:49:34;32.58;;;16.92;;
62332;SDS011;48624;49.812;8.562;2023-11-21T05:52:00;32.80;;;15.68;;
62332;SDS011;48624;49.812;8.562;2023-11-21T05:54:25;36.70;;;16.08;;
62332;SDS011;48624;49.812;8.562;2023-11-21T05:56:52;22.45;;;11.90;;
62332;SDS011;48624;49.812;8.562;2023-11-21T05:59:17;25.48;;;11.55;;
62332;SDS011;48624;49.812;8.562;2023-11-21T06:01:43;23.33;;;10.65;;
62332;SDS011;48624;49.812;8.562;2023-11-21T06:04:08;22.90;;;9.70;;
62332;SDS011;48624;49.812;8.562;2023-11-21T06:06:34;19.15;;;9.48;;
62332;SDS011;48624;49.812;8.562;2023-11-21T06:09:00;16.55;;;8.57;;
62332;SDS011;48624;49.812;8.562;2023-11-21T06:11:25;17.90;;;8.88;;
62332;SDS011;48624;49.812;8.562;2023-11-21T06:13:50;19.33;;;7.82;;
62332;SDS011;48624;49.812;8.562;2023-11-21T06:16:18;18.90;;;8.98;;
62332;SDS011;48624;49.812;8.562;2023-11-21T06:18:44;16.00;;;8.77;;
62332;SDS011;48624;49.812;8.562;2023-11-21T06:21:10;15.70;;;6.93;;
62332;SDS011;48624;49.812;8.562;2023-11-21T06:23:36;12.98;;;7.05;;
62332;SDS011;48624;49.812;8.562;2023-11-21T06:26:01;10.52;;;5.75;;
62332;SDS011;48624;49.812;8.562;2023-11-21T06:28:27;11.23;;;4.82;;
62332;SDS011;48624;49.812;8.562;2023-11-21T06:30:52;9.75;;;4.32;;
62332;SDS011;48624;49.812;8.562;2023-11-21T06:33:18;9.57;;;5.18;;
62332;SDS011;48624;49.812;8.562;2023-11-21T06:35:43;7.28;;;3.97;;
62332;SDS011;48624;49.812;8.562;2023-11-21T06:38:09;7.50;;;4.20;;
62332;SDS011;48624;49.812;8.562;2023-11-21T06:40:35;8.82;;;4.38;;
62332;SDS011;48624;49.812;8.562;2023-11-21T06:43:00;7.45;;;3.65;;
62332;SDS011;48624;49.812;8.562;2023-11-21T06:45:26;5.35;;;3.10;;
62332;SDS011;48624;49.812;8.562;2023-11-21T06:47:51;6.80;;;3.30;;
62332;SDS011;48624;49.812;8.562;2023-11-21T06:50:16;4.60;;;2.70;;
62332;SDS011;48624;49.812;8.562;2023-11-21T06:52:42;7.18;;;2.85;;
62332;SDS011;48624;49.812;8.562;2023-11-21T06:55:08;5.32;;;2.80;;
62332;SDS011;48624;49.812;8.562;2023-11-21T06:57:33;4.95;;;3.05;;
62332;SDS011;48624;49.812;8.562;2023-11-21T07:00:00;7.47;;;3.00;;
62332;SDS011;48624;49.812;8.562;2023-11-21T07:02:25;5.80;;;2.90;;
62332;SDS011;48624;49.812;8.562;2023-11-21T07:04:50;4.95;;;2.88;;
62332;SDS011;48624;49.812;8.562;2023-11-21T07:07:16;3.85;;;2.33;;
62332;SDS011;48624;49.812;8.562;2023-11-21T07:09:41;3.92;;;2.28;;
62332;SDS011;48624;49.812;8.562;2023-11-21T07:12:06;6.18;;;3.17;;
62332;SDS011;48624;49.812;8.562;2023-11-21T07:14:35;6.05;;;2.22;;
62332;SDS011;48624;49.812;8.562;2023-11-21T07:17:00;6.55;;;2.92;;
62332;SDS011;48624;49.812;8.562;2023-11-21T07:19:25;4.57;;;2.47;;
62332;SDS011;48624;49.812;8.562;2023-11-21T07:21:51;6.20;;;3.05;;
62332;SDS011;48624;49.812;8.562;2023-11-21T07:24:16;6.50;;;2.90;;
62332;SDS011;48624;49.812;8.562;2023-11-21T07:26:42;7.50;;;3.55;;
62332;SDS011;48624;49.812;8.562;2023-11-21T07:29:08;7.55;;;3.78;;
62332;SDS011;48624;49.812;8.562;2023-11-21T07:31:33;7.72;;;3.75;;
62332;SDS011;48624;49.812;8.562;2023-11-21T07:33:59;10.73;;;4.82;;
62332;SDS011;48624;49.812;8.562;2023-11-21T07:36:25;11.68;;;4.97;;
62332;SDS011;48624;49.812;8.562;2023-11-21T07:38:50;11.50;;;5.38;;
62332;SDS011;48624;49.812;8.562;2023-11-21T07:41:16;15.00;;;5.80;;
62332;SDS011;48624;49.812;8.562;2023-11-21T07:43:43;18.75;;;7.72;;
62332;SDS011;48624;49.812;8.562;2023-11-21T07:46:09;17.05;;;7.43;;
62332;SDS011;48624;49.812;8.562;2023-11-21T07:48:34;20.05;;;7.78;;
62332;SDS011;48624;49.812;8.562;2023-11-21T07:51:02;17.27;;;6.40;;
62332;SDS011;48624;49.812;8.562;2023-11-21T07:53:32;18.45;;;7.18;;
62332;SDS011;48624;49.812;8.562;2023-11-21T07:55:58;20.42;;;7.78;;
62332;SDS011;48624;49.812;8.562;2023-11-21T07:58:33;23.20;;;8.32;;
62332;SDS011;48624;49.812;8.562;2023-11-21T08:01:00;18.98;;;8.43;;
62332;SDS011;48624;49.812;8.562;2023-11-21T08:03:27;19.60;;;8.45;;
62332;SDS011;48624;49.812;8.562;2023-11-21T08:05:54;15.70;;;7.53;;
62332;SDS011;48624;49.812;8.562;2023-11-21T08:08:19;18.60;;;8.55;;
62332;SDS011;48624;49.812;8.562;2023-11-21T08:10:45;19.27;;;8.35;;
62332;SDS011;48624;49.812;8.562;2023-11-21T08:13:13;17.48;;;8.15;;
62332;SDS011;48624;49.812;8.562;2023-11-21T08:15:40;18.90;;;9.20;;
62332;SDS011;48624;49.812;8.562;2023-11-21T08:18:06;25.85;;;11.35;;
62332;SDS011;48624;49.812;8.562;2023-11-21T08:20:32;24.50;;;10.80;;
62332;SDS011;48624;49.812;8.562;2023-11-21T08:22:57;23.95;;;10.73;;
62332;SDS011;48624;49.812;8.562;2023-11-21T08:25:23;30.80;;;12.82;;
62332;SDS011;48624;49.812;8.562;2023-11-21T08:27:48;32.42;;;13.60;;
62332;SDS011;48624;49.812;8.562;2023-11-21T08:30:15;37.65;;;13.70;;
62332;SDS011;48624;49.812;8.562;2023-11-21T08:32:41;36.58;;;14.82;;
62332;SDS011;48624;49.812;8.562;2023-11-21T08:35:07;43.10;;;16.77;;
62332;SDS011;48624;49.812;8.562;2023-11-21T08:37:33;44.83;;;16.30;;
62332;SDS011;48624;49.812;8.562;2023-11-21T08:40:02;40.83;;;15.93;;
62332;SDS011;48624;49.812;8.562;2023-11-21T08:42:28;45.63;;;16.45;;
62332;SDS011;48624;49.812;8.562;2023-11-21T08:44:55;45.17;;;15.90;;
62332;SDS011;48624;49.812;8.562;2023-11-21T08:47:23;40.88;;;16.75;;
62332;SDS011;48624;49.812;8.562;2023-11-21T08:49:49;39.13;;;15.68;;
62332;SDS011;48624;49.812;8.562;2023-11-21T08:52:18;41.65;;;15.13;;
62332;SDS011;48624;49.812;8.562;2023-11-21T08:54:48;38.80;;;14.77;;
62332;SDS011;48624;49.812;8.562;2023-11-21T08:57:20;41.45;;;15.80;;
62332;SDS011;48624;49.812;8.562;2023-11-21T08:59:46;41.88;;;15.57;;
62332;SDS011;48624;49.812;8.562;2023-11-21T09:02:11;37.95;;;15.38;;
62332;SDS011;48624;49.812;8.562;2023-11-21T09:04:36;39.40;;;14.88;;
62332;SDS011;48624;49.812;8.562;2023-11-21T09:07:03;40.97;;;16.63;;
62332;SDS011;48624;49.812;8.562;2023-11-21T09:09:28;42.55;;;18.75;;
62332;SDS011;48624;49.812;8.562;2023-11-21T09:11:54;42.08;;;18.88;;
62332;SDS011;48624;49.812;8.562;2023-11-21T09:14:20;34.95;;;15.52;;
62332;SDS011;48624;49.812;8.562;2023-11-21T09:16:45;35.70;;;15.95;;
62332;SDS011;48624;49.812;8.562;2023-11-21T09:19:10;35.53;;;16.35;;
62332;SDS011;48624;49.812;8.562;2023-11-21T09:21:36;32.88;;;14.85;;
62332;SDS011;48624;49.812;8.562;2023-11-21T09:24:02;37.53;;;15.15;;
62332;SDS011;48624;49.812;8.562;2023-11-21T09:26:28;31.38;;;13.32;;
62332;SDS011;48624;49.812;8.562;2023-11-21T09:28:55;31.90;;;12.98;;
62332;SDS011;48624;49.812;8.562;2023-11-21T09:31:21;27.40;;;12.50;;
62332;SDS011;48624;49.812;8.562;2023-11-21T09:33:47;33.30;;;13.93;;
62332;SDS011;48624;49.812;8.562;2023-11-21T09:36:13;25.38;;;13.23;;
62332;SDS011;48624;49.812;8.562;2023-11-21T09:38:39;26.70;;;11.82;;
62332;SDS011;48624;49.812;8.562;2023-11-21T09:41:06;27.63;;;12.00;;
62332;SDS011;48624;49.812;8.562;2023-11-21T09:43:45;23.88;;;11.07;;
62332;SDS011;48624;49.812;8.562;2023-11-21T09:46:12;20.75;;;10.00;;
62332;SDS011;48624;49.812;8.562;2023-11-21T09:48:44;22.52;;;11.20;;
62332;SDS011;48624;49.812;8.562;2023-11-21T09:51:15;22.27;;;10.52;;
62332;SDS011;48624;49.812;8.562;2023-11-21T09:53:41;25.38;;;10.77;;
62332;SDS011;48624;49.812;8.562;2023-11-21T09:56:10;21.23;;;9.10;;
62332;SDS011;48624;49.812;8.562;2023-11-21T09:58:35;24.83;;;10.98;;
62332;SDS011;48624;49.812;8.562;2023-11-21T10:01:01;24.38;;;9.95;;
62332;SDS011;48624;49.812;8.562;2023-11-21T10:03:28;22.40;;;11.00;;
62332;SDS011;48624;49.812;8.562;2023-11-21T10:05:54;20.58;;;9.80;;
62332;SDS011;48624;49.812;8.562;2023-11-21T10:08:21;22.80;;;10.55;;
62332;SDS011;48624;49.812;8.562;2023-11-21T10:10:49;21.73;;;10.50;;
62332;SDS011;48624;49.812;8.562;2023-11-21T10:13:18;21.33;;;10.60;;
62332;SDS011;48624;49.812;8.562;2023-11-21T10:15:44;19.95;;;9.70;;
62332;SDS011;48624;49.812;8.562;2023-11-21T10:18:15;24.83;;;11.15;;
62332;SDS011;48624;49.812;8.562;2023-11-21T10:20:41;24.92;;;11.45;;
62332;SDS011;48624;49.812;8.562;2023-11-21T10:23:08;19.95;;;10.18;;
62332;SDS011;48624;49.812;8.562;2023-11-21T10:25:36;23.15;;;11.20;;
62332;SDS011;48624;49.812;8.562;2023-11-21T10:28:02;20.27;;;10.38;;
62332;SDS011;48624;49.812;8.562;2023-11-21T10:30:34;20.33;;;9.90;;
62332;SDS011;48624;49.812;8.562;2023-11-21T10:33:02;20.50;;;10.32;;
62332;SDS011;48624;49.812;8.562;2023-11-21T10:35:52;19.27;;;9.68;;
62332;SDS011;48624;49.812;8.562;2023-11-21T10:38:19;16.98;;;9.70;;
62332;SDS011;48624;49.812;8.562;2023-11-21T10:40:49;22.05;;;8.27;;
62332;SDS011;48624;49.812;8.562;2023-11-21T10:43:15;14.82;;;8.27;;
62332;SDS011;48624;49.812;8.562;2023-11-21T10:45:42;17.48;;;9.07;;
62332;SDS011;48624;49.812;8.562;2023-11-21T10:48:08;17.73;;;9.13;;
62332;SDS011;48624;49.812;8.562;2023-11-21T10:50:41;16.73;;;8.32;;
62332;SDS011;48624;49.812;8.562;2023-11-21T10:53:08;16.30;;;8.73;;
62332;SDS011;48624;49.812;8.562;2023-11-21T10:55:33;19.98;;;8.63;;
62332;SDS011;48624;49.812;8.562;2023-11-21T10:58:00;17.42;;;7.18;;
62332;SDS011;48624;49.812;8.562;2023-11-21T11:00:27;14.93;;;7.97;;
62332;SDS011;48624;49.812;8.562;2023-11-21T11:02:53;11.45;;;7.30;;
62332;SDS011;48624;49.812;8.562;2023-11-21T11:05:20;14.43;;;7.28;;
62332;SDS011;48624;49.812;8.562;2023-11-21T11:08:00;9.68;;;6.25;;
62332;SDS011;48624;49.812;8.562;2023-11-21T11:10:29;13.38;;;6.80;;
62332;SDS011;48624;49.812;8.562;2023-11-21T11:12:55;12.10;;;6.28;;
62332;SDS011;48624;49.812;8.562;2023-11-21T11:15:23;12.05;;;6.25;;
62332;SDS011;48624;49.812;8.562;2023-11-21T11:17:49;13.15;;;6.35;;
62332;SDS011;48624;49.812;8.562;2023-11-21T11:20:15;14.10;;;6.07;;
62332;SDS011;48624;49.812;8.562;2023-11-21T11:22:50;12.23;;;5.07;;
62332;SDS011;48624;49.812;8.562;2023-11-21T11:32:27;9.40;;;5.45;;
62332;SDS011;48624;49.812;8.562;2023-11-21T11:35:30;13.77;;;6.03;;
62332;SDS011;48624;49.812;8.562;2023-11-21T11:38:02;13.43;;;5.97;;
62332;SDS011;48624;49.812;8.562;2023-11-21T11:40:40;11.45;;;5.70;;
62332;SDS011;48624;49.812;8.562;2023-11-21T11:43:24;8.77;;;5.32;;
62332;SDS011;48624;49.812;8.562;2023-11-21T11:45:52;9.13;;;5.20;;
62332;SDS011;48624;49.812;8.562;2023-11-21T11:48:21;8.43;;;4.72;;
62332;SDS011;48624;49.812;8.562;2023-11-21T11:51:06;8.48;;;4.90;;
62332;SDS011;48624;49.812;8.562;2023-11-21T11:53:45;7.55;;;3.53;;
62332;SDS011;48624;49.812;8.562;2023-11-21T11:56:29;7.82;;;3.30;;
62332;SDS011;48624;49.812;8.562;2023-11-21T11:58:59;7.22;;;2.60;;
62332;SDS011;48624;49.812;8.562;2023-11-21T12:01:27;6.40;;;3.60;;
62332;SDS011;48624;49.812;8.562;2023-11-21T12:04:22;6.00;;;4.45;;
62332;SDS011;48624;49.812;8.562;2023-11-21T12:06:45;3.72;;;2.90;;
62332;SDS011;48624;49.812;8.562;2023-11-21T12:09:17;9.23;;;3.47;;
62332;SDS011;48624;49.812;8.562;2023-11-21T12:11:44;7.03;;;3.55;;
62332;SDS011;48624;49.812;8.562;2023-11-21T12:14:10;5.28;;;3.55;;
62332;SDS011;48624;49.812;8.562;2023-11-21T12:16:38;6.60;;;3.60;;
62332;SDS011;48624;49.812;8.562;2023-11-21T12:19:04;6.78;;;3.70;;
62332;SDS011;48624;49.812;8.562;2023-11-21T12:21:29;7.10;;;3.75;;
62332;SDS011;48624;49.812;8.562;2023-11-21T12:23:55;11.00;;;3.97;;
62332;SDS011;48624;49.812;8.562;2023-11-21T12:26:22;8.93;;;3.72;;
62332;SDS011;48624;49.812;8.562;2023-11-21T12:28:52;7.88;;;3.33;;
62332;SDS011;48624;49.812;8.562;2023-11-21T12:31:20;11.23;;;4.35;;
62332;SDS011;48624;49.812;8.562;2023-11-21T12:33:46;5.97;;;4.28;;
62332;SDS011;48624;49.812;8.562;2023-11-21T12:36:12;8.18;;;4.25;;
62332;SDS011;48624;49.812;8.562;2023-11-21T12:38:37;9.23;;;3.33;;
62332;SDS011;48624;49.812;8.562;2023-11-21T12:41:03;8.23;;;4.03;;
62332;SDS011;48624;49.812;8.562;2023-11-21T12:43:29;7.28;;;3.97;;
62332;SDS011;48624;49.812;8.562;2023-11-21T12:46:08;7.22;;;3.42;;
62332;SDS011;48624;49.812;8.562;2023-11-21T12:48:37;8.82;;;3.97;;
62332;SDS011;48624;49.812;8.562;2023-11-21T12:51:10;8.02;;;4.35;;
62332;SDS011;48624;49.812;8.562;2023-11-21T12:53:40;9.63;;;4.47;;
62332;SDS011;48624;49.812;8.562;2023-11-21T12:56:09;9.90;;;4.75;;
62332;SDS011;48624;49.812;8.562;2023-11-21T12:58:36;6.30;;;4.25;;
62332;SDS011;48624;49.812;8.562;2023-11-21T13:01:04;7.22;;;4.20;;
62332;SDS011;48624;49.812;8.562;2023-11-21T13:03:30;10.10;;;5.38;;
62332;SDS011;48624;49.812;8.562;2023-11-21T13:05:56;8.00;;;3.85;;
62332;SDS011;48624;49.812;8.562;2023-11-21T13:08:24;6.45;;;4.20;;
62332;SDS011;48624;49.812;8.562;2023-11-21T13:10:54;7.20;;;4.00;;
62332;SDS011;48624;49.812;8.562;2023-11-21T13:13:21;8.15;;;4.20;;
62332;SDS011;48624;49.812;8.562;2023-11-21T13:15:47;6.78;;;4.00;;
62332;SDS011;48624;49.812;8.562;2023-11-21T13:18:14;7.30;;;3.80;;
62332;SDS011;48624;49.812;8.562;2023-11-21T13:20:41;9.50;;;4.53;;
62332;SDS011;48624;49.812;8.562;2023-11-21T13:23:08;6.82;;;3.20;;
62332;SDS011;48624;49.812;8.562;2023-11-21T13:25:37;6.72;;;3.88;;
62332;SDS011;48624;49.812;8.562;2023-11-21T13:28:04;6.47;;;4.25;;
62332;SDS011;48624;49.812;8.562;2023-11-21T13:30:30;8.23;;;4.80;;
62332;SDS011;48624;49.812;8.562;2023-11-21T13:32:59;6.55;;;4.18;;
62332;SDS011;48624;49.812;8.562;2023-11-21T13:35:31;7.13;;;4.18;;
62332;SDS011;48624;49.812;8.562;2023-11-21T13:38:15;4.18;;;3.33;;
62332;SDS011;48624;49.812;8.562;2023-11-21T13:43:15;6.70;;;3.53;;
62332;SDS011;48624;49.812;8.562;2023-11-21T13:45:43;8.43;;;3.28;;
62332;SDS011;48624;49.812;8.562;2023-11-21T13:48:10;6.22;;;3.22;;
62332;SDS011;48624;49.812;8.562;2023-11-21T13:50:45;5.38;;;3.45;;
62332;SDS011;48624;49.812;8.562;2023-11-21T13:53:21;6.10;;;3.83;;
62332;SDS011;48624;49.812;8.562;2023-11-21T13:55:50;8.50;;;3.90;;
62332;SDS011;48624;49.812;8.562;2023-11-21T13:58:16;6.78;;;3.80;;
62332;SDS011;48624;49.812;8.562;2023-11-21T14:00:48;6.85;;;4.40;;
62332;SDS011;48624;49.812;8.562;2023-11-21T14:03:21;5.22;;;2.80;;
62332;SDS011;48624;49.812;8.562;2023-11-21T14:05:48;7.47;;;4.13;;
62332;SDS011;48624;49.812;8.562;2023-11-21T14:08:16;6.75;;;3.30;;
62332;SDS011;48624;49.812;8.562;2023-11-21T14:10:51;7.72;;;3.45;;
62332;SDS011;48624;49.812;8.562;2023-11-21T14:13:20;7.10;;;4.03;;
62332;SDS011;48624;49.812;8.562;2023-11-21T14:15:48;6.03;;;3.50;;
62332;SDS011;48624;49.812;8.562;2023-11-21T14:18:16;8.88;;;3.60;;
62332;SDS011;48624;49.812;8.562;2023-11-21T14:20:46;6.20;;;3.70;;
62332;SDS011;48624;49.812;8.562;2023-11-21T14:23:11;8.60;;;4.28;;
62332;SDS011;48624;49.812;8.562;2023-11-21T14:25:37;8.73;;;4.25;;
62332;SDS011;48624;49.812;8.562;2023-11-21T14:28:04;8.80;;;3.97;;
62332;SDS011;48624;49.812;8.562;2023-11-21T14:30:31;9.45;;;4.70;;
62332;SDS011;48624;49.812;8.562;2023-11-21T14:33:01;8.27;;;4.70;;
62332;SDS011;48624;49.812;8.562;2023-11-21T14:35:27;9.32;;;4.53;;
62332;SDS011;48624;49.812;8.562;2023-11-21T14:37:57;10.00;;;4.22;;
62332;SDS011;48624;49.812;8.562;2023-11-21T14:40:23;12.82;;;6.60;;
62332;SDS011;48624;49.812;8.562;2023-11-21T14:42:49;7.82;;;3.95;;
62332;SDS011;48624;49.812;8.562;2023-11-21T14:45:18;6.63;;;3.78;;